Details From GOOY - Dakar Leopold Sedar Senghor Intl
To DAAG - Alger Houari Boumediene
Flight Number -
Tags Standard
Created
Modified
Stats Distance 1,876 nm / 3,475 km
Max Altitude 3,281 ft / 1,000 m
Waypoints 16
Social Downloads 3
Likes 0
Share VATSIM

Download

Looking for another format? Having issues loading an existing format? Contact us
Advertisement - Login to hide

Notes

Dep rwy 36 - Arr rwy 23

Route

+14.741_-017.485 YF060 YF175 KORAN NULET ERENA LOLOS ROYAL CABOJ KEMEX ERLAM SOVAL +35.440_-001.732 +36.997_+003.446 +36.891_+003.547 +36.811_+003.415

ID Type Via Altitude Latitude Longitude Leg Dist Tot Dist Heading (true) Name
O +14.741_-017.485 LATLON - 0 ft / 0 m 14.74100˚ -17.48500˚ - 0 nm - -
YF060 FIX - 0 ft / 0 m 14.84094˚ -17.50498˚ 6 nm 6 nm 349° / 349° -
YF175 FIX - 0 ft / 0 m 15.03794˚ -17.47478˚ 11 nm 18 nm 8° / 8° -
KORAN FIX - 0 ft / 0 m 16.40833˚ -17.36000˚ 82 nm 100 nm 5° / 5° -
NULET FIX - 0 ft / 0 m 18.41806˚ -17.21667˚ 120 nm 221 nm 4° / 4° -
ERENA FIX - 0 ft / 0 m 19.97222˚ -16.66778˚ 98 nm 320 nm 18° / 19° -
LOLOS FIX - 0 ft / 0 m 21.85833˚ -16.67056˚ 113 nm 433 nm 360° / 360° -
ROYAL FIX - 0 ft / 0 m 25.00000˚ -15.78674˚ 194 nm 628 nm 14° / 15° -
CABOJ FIX - 0 ft / 0 m 26.13889˚ -14.64389˚ 92 nm 720 nm 42° / 42° -
KEMEX FIX - 0 ft / 0 m 31.01444˚ -9.72000˚ 391 nm 1111 nm 40° / 43° -
ERLAM FIX - 0 ft / 0 m 32.91917˚ -6.39000˚ 204 nm 1316 nm 55° / 57° -
SOVAL FIX - 0 ft / 0 m 34.17278˚ -4.16889˚ 134 nm 1450 nm 55° / 57° -
+35.440_-001.732 LATLON - 3,281 ft / 1,000 m 35.43982˚ -1.73229˚ 142 nm 1592 nm 57° / 58° -
+36.997_+003.446 LATLON - 3,281 ft / 1,000 m 36.99695˚ 3.44634˚ 267 nm 1860 nm 68° / 71° -
+36.891_+003.547 LATLON - 3,281 ft / 1,000 m 36.89104˚ 3.54721˚ 7 nm 1868 nm 143° / 143° -
O +36.811_+003.415 LATLON - 3,281 ft / 1,000 m 36.81074˚ 3.41457˚ 7 nm 1876 nm 233° / 233° -

Altitude Profile

Advertisement - Login to hide

Weather


0- 5 10 15 20 25 30 35+ Temperature / ° C

Clouds and Precipitation
Forecast for 2017-12-17 06:00 UTC. Updated an hour ago

Ground ~20,000 ft ~40,000 ft Winds

GOOY

Details ICAO GOOY (DKR)
Name Dakar Leopold Sedar Senghor Intl
Region Senegal
Timezone Africa/Dakar (UTC+0.0)
Stats Elevation 85 ft / 26 m (AMSL)
Location 14.739711° -17.490226°
Runways 2
Magnetic Variation 7.347° W

METAR

GOOY 170200Z 36008KT 8000 NSC 21/19 Q1016

Decode

TAF

TAF GOOY 162330Z 1700/1806 03014KT 8000 NSC= TAF GBYD 162330Z 1700/1806 02008KT 8000 NSC

Decode

Departure Runways

ID Width Length Bearing (true) Bearing (mag) Surface Threshold Offset Overrun Length
03 98 ft / 30 m 4,921 ft / 1,500 m 22.31° 29.66° Asphalt 0 ft / 0 m 98 ft / 30 m
18 148 ft / 45 m 11,511 ft / 3,509 m 172.57° 179.92° Asphalt 525 ft / 160 m 197 ft / 60 m
21 98 ft / 30 m 4,921 ft / 1,500 m 202.31° 209.66° Asphalt 0 ft / 0 m 1,590 ft / 485 m
36 148 ft / 45 m 11,511 ft / 3,509 m 352.57° 359.92° Asphalt 0 ft / 0 m 197 ft / 60 m

DAAG

Details ICAO DAAG (ALG)
Name Alger Houari Boumediene
Region Algeria
Timezone Africa/Algiers (UTC+1.0)
Stats Elevation 82 ft / 25 m (AMSL)
Location 36.697521° 3.213079°
Runways 2
Magnetic Variation 1.058° E

METAR

DAAG 170230Z 17003KT 130V210 9999 FEW020 BKN073 09/08 Q1024

Decode

TAF

TAF DAAG 162300Z 1700/1724 VRB02KT 9999 FEW020 SCT036 PROB40 TEMPO 1700/1708 5000 -RA SCT020TCU FEW023CB BECMG 1708/1711 04012KT

Decode

Destination Runways

ID Width Length Bearing (true) Bearing (mag) Surface Threshold Offset Overrun Length
05 197 ft / 60 m 11,459 ft / 3,493 m 52.87° 51.81° Asphalt 0 ft / 0 m 0 ft / 0 m
09 148 ft / 45 m 11,442 ft / 3,487 m 91.75° 90.69° Asphalt 0 ft / 0 m 1,017 ft / 310 m
23 197 ft / 60 m 11,459 ft / 3,493 m 232.89° 231.83° Asphalt 0 ft / 0 m 0 ft / 0 m
27 148 ft / 45 m 11,442 ft / 3,487 m 271.78° 270.72° Asphalt 0 ft / 0 m 0 ft / 0 m

Approach Navaids

Runway Type Ident Frequency Range Bearing (true) Bearing (mag) Slope Elevation
09 Localiser HB 108.50 MHz 18 nm / 33 km 91.73° 90.67° - 82 ft / 25 m (AMSL)
09 Glidescope HB 108.50 MHz 10 nm / 19 km 91.77° 90.71° 3.00° 82 ft / 25 m (AMSL)
23 Localiser AG 110.30 MHz 18 nm / 33 km 232.74° 231.68° - 82 ft / 25 m (AMSL)
23 Glidescope AG 110.30 MHz 10 nm / 19 km 232.88° 231.82° 3.00° 82 ft / 25 m (AMSL)

Popular Alternatives